Lincolnwood, Illinois
Current Conditions -  °F | °C
As of 2:51 PM on Thursday 23 Oct 2014 (Local Time) from KORD Reporting Station
Overcast Overcast  
Wind Chill: 58°   Ceiling: 20000
Heat Index: 58°   Visibility: 10mi
Dew Point: 41°   Wind: 12mph
Humidity: 53%   Direction: 210°SSW
Pressure: 30.11"   Gusts: 18mph
Location:  42.01°N, 87.73°W
Report Text: KORD 231951Z 21010G16KT 10SM OVC200 14/05 A3011 RMK AO2 SLP197 T01440050 $
Loading
Personal Weather Stations






























Interactive Weather Map
Tropical Storm Tracking
New forecast layout! Learn more

10-Day Weather Forecast

Advertisements
Track Severe Weather on mobile